CheckWX is a tool to help pilots better visualize weather data.  It is not intended as a substitute for an official pre-flight weather briefing.

00:28:41 UTC

FNHU TAF
Nova Lisboa Airport
Huambo, Angola
TAF FNHU 252230Z 2600/2612 VRB03KT 9000 SCT020 OVC022 FEW030CB BECMG 2610/2612 9999 FEW018 FEW020CB

Mar-26@
00:00 UTC

Mar-26 @ 00:00 UTC

Mar-26@
10:00 UTC

Mar-26 @ 10:00 UTC

TAF FNHU 252230Z 2600/2612 VRB03KT 9000 SCT020 OVC022 FEW030CB
Wind
  • Variable at 3 KTS
Cloud Levels
  • Scattered at 2,000' AGL
  • Overcast at 2,200' AGL
  • Few at 3,000' AGL

Mar-26@
10:00 UTC

Mar-26 @ 10:00 UTC

Mar-26@
12:00 UTC

Mar-26 @ 12:00 UTC

BECMG 2610/2612 9999 FEW018 FEW020CB

Becoming

Becoming Conditions expected by Tue, Mar 26, 2019 @ 12:00 UTC

Wind
  • Variable at 3 KTS
Cloud Levels
  • Few at 1,800' AGL
  • Few at 2,000' AGL